Time;durP1;ratioP1;P1;durP2;ratioP2;P2;SDS_P1;SDS_P2;PMS_P1;PMS_P2;Temp;Humidity;BMP_temperature;BMP_pressure;BME280_temperature;BME280_humidity;BME280_pressure;Samples;Min_cycle;Max_cycle;Signal;HPM_P1;HPM_P2
2023/08/10 12:09:10;;;;;;;27.47;25.53;;;;;;;;;;5090022;27;20547;-82
2023/08/10 12:11:37;;;;;;;211.67;108.40;;;;;;;;;;5081600;28;20469;-83
2023/08/10 12:14:05;;;;;;;234.70;118.00;;;;;;;;;;5069906;28;20444;-82
2023/08/10 12:16:32;;;;;;;230.20;112.80;;;;;;;;;;5059649;28;20442;-82
2023/08/10 12:19:00;;;;;;;189.87;123.57;;;;;;;;;;5069632;28;20549;-84
2023/08/10 12:21:27;;;;;;;101.23;70.23;;;;;;;;;;5069595;28;20448;-84
2023/08/10 12:23:55;;;;;;;8.30;7.73;;;;;;;;;;5069617;28;20446;-82
2023/08/10 12:26:23;;;;;;;55.77;51.40;;;;;;;;;;5069635;28;20445;-81
2023/08/10 12:28:50;;;;;;;5.13;4.70;;;;;;;;;;5069474;28;21032;-82
2023/08/10 12:31:17;;;;;;;5.33;4.20;;;;;;;;;;5068405;28;20446;-85
2023/08/10 12:33:45;;;;;;;14.67;13.60;;;;;;;;;;5069815;28;20908;-84
2023/08/10 12:36:12;;;;;;;3.40;2.97;;;;;;;;;;5069863;28;20503;-83
2023/08/10 12:38:39;;;;;;;2.97;2.67;;;;;;;;;;5069794;28;20445;-86
2023/08/10 12:41:06;;;;;;;4.10;3.23;;;;;;;;;;5069750;28;20442;-78
2023/08/10 12:43:35;;;;;;;4.83;3.07;;;27.40;58.10;;;;;;5069847;28;20437;-87
2023/08/10 12:46:02;;;;;;;6.27;4.60;;;;;;;;;;5068313;28;20445;-83
2023/08/10 12:48:29;;;;;;;4.30;3.17;;;;;;;;;;5069440;28;20489;-88
2023/08/10 12:50:56;;;;;;;6.53;3.00;;;;;;;;;;5069597;28;20457;-91
2023/08/10 12:53:23;;;;;;;4.30;3.37;;;;;;;;;;5069474;28;20449;-86
2023/08/10 12:55:50;;;;;;;3.90;3.60;;;;;;;;;;5069404;28;20941;-83
2023/08/10 12:58:17;;;;;;;4.23;3.20;;;;;;;;;;5069305;28;20453;-84
2023/08/10 13:00:46;;;;;;;5.10;4.17;;;;;;;;;;5067938;28;20941;-84
2023/08/10 13:03:13;;;;;;;4.40;3.03;;;;;;;;;;5069322;28;20453;-84
2023/08/10 13:05:41;;;;;;;2.40;2.20;;;;;;;;;;5069198;28;20442;-85
2023/08/10 13:08:08;;;;;;;4.10;2.80;;;;;;;;;;5068910;28;20501;-84
2023/08/10 13:10:35;;;;;;;3.23;2.93;;;;;;;;;;5069053;28;20461;-81
2023/08/10 13:13:02;;;;;;;3.07;2.87;;;;;;;;;;5068935;28;20446;-81
2023/08/10 13:15:30;;;;;;;9.57;7.23;;;;;;;;;;5067383;28;20446;-81
2023/08/10 13:17:58;;;;;;;3.47;2.53;;;;;;;;;;5068999;28;20449;-86
2023/08/10 13:20:26;;;;;;;2.90;2.40;;;;;;;;;;5055946;28;20447;-89
2023/08/10 13:22:53;;;;;;;4.20;2.60;;;;;;;;;;5057741;28;20525;-83
2023/08/10 13:25:20;;;;;;;2.90;2.70;;;;;;;;;;5055492;28;20926;-83
2023/08/10 13:27:47;;;;;;;4.07;3.33;;;;;;;;;;5055365;28;20496;-83
2023/08/10 13:30:14;;;;;;;3.07;2.80;;;;;;;;;;5055513;28;20462;-84
2023/08/10 13:32:41;;;;;;;2.50;2.30;;;;;;;;;;5054602;28;20458;-83
2023/08/10 13:35:10;;;;;;;6.40;2.50;;;;;;;;;;5055403;28;20521;-84
2023/08/10 13:37:38;;;;;;;3.33;2.10;;;;;;;;;;5055410;28;20951;-86
2023/08/10 13:40:06;;;;;;;3.13;2.83;;;;;;;;;;5055531;28;20906;-85
2023/08/10 13:42:33;;;;;;;11.63;8.80;;;;;;;;;;5057461;28;20458;-83
2023/08/10 13:45:00;;;;;;;4.93;3.20;;;;;;;;;;5055210;28;20450;-84
2023/08/10 13:47:27;;;;;;;3.67;3.00;;;;;;;;;;5054062;28;20447;-83
2023/08/10 13:49:54;;;;;;;3.80;3.00;;;;;;;;;;5054826;28;20455;-83
2023/08/10 13:52:24;;;;;;;5.57;4.90;;;;;;;;;;5055116;28;20450;-83
2023/08/10 13:54:51;;;;;;;4.30;3.90;;;;;;;;;;5054969;28;20446;-82
2023/08/10 13:57:18;;;;;;;6.90;3.00;;;;;;;;;;5054917;28;20454;-84
2023/08/10 13:59:46;;;;;;;4.10;3.67;;;;;;;;;;5055020;28;20446;-84
2023/08/10 14:02:13;;;;;;;4.80;3.37;;;;;;;;;;5053628;28;21142;-83
2023/08/10 14:04:40;;;;;;;3.70;3.10;;;;;;;;;;5054899;28;20501;-82
2023/08/10 14:07:07;;;;;;;4.47;3.83;;;;;;;;;;5054684;28;20482;-82
2023/08/10 14:09:35;;;;;;;4.60;3.97;;;;;;;;;;5054354;28;21001;-82
2023/08/10 14:12:03;;;;;;;3.50;3.20;;;;;;;;;;5054677;28;20467;-82
2023/08/10 14:14:30;;;;;;;5.60;5.10;;;27.50;56.60;;;;;;5054711;28;20477;-82
2023/08/10 14:16:58;;;;;;;2.23;2.03;;;;;;;;;;5053150;28;20496;-82
2023/08/10 14:19:25;;;;;;;3.30;2.53;;;;;;;;;;5054607;28;20824;-82
2023/08/10 14:21:52;;;;;;;4.00;3.10;;;;;;;;;;5054528;28;20542;-81
2023/08/10 14:24:21;;;;;;;3.70;3.13;;;;;;;;;;5054456;28;20446;-81
2023/08/10 14:26:49;;;;;;;3.43;3.13;;;27.50;53.00;;;;;;5054477;28;20504;-82
2023/08/10 14:29:16;;;;;;;4.27;3.20;;;;;;;;;;5054286;28;20500;-81
2023/08/10 14:31:43;;;;;;;3.83;3.50;;;;;;;;;;5052037;28;20443;-83
2023/08/10 14:34:11;;;;;;;3.30;3.00;;;;;;;;;;5054152;28;20443;-83
2023/08/10 14:36:38;;;;;;;3.20;2.67;;;;;;;;;;5054233;28;20450;-83
2023/08/10 14:39:05;;;;;;;3.23;2.60;;;;;;;;;;5054117;28;20450;-83
2023/08/10 14:41:32;;;;;;;3.10;2.50;;;;;;;;;;5054182;28;20457;-83
2023/08/10 14:44:01;;;;;;;5.20;4.77;;;;;;;;;;5054067;28;20455;-87
2023/08/10 14:46:28;;;;;;;209.27;100.20;;;;;;;;;;5052611;28;20446;-83
2023/08/10 14:48:55;;;;;;;224.60;113.90;;;;;;;;;;5053795;28;20532;-82
2023/08/10 14:51:22;;;;;;;230.47;116.83;;;;;;;;;;5053787;28;20417;-81
